sensor_id;sensor_type;location;lat;lon;timestamp;temperature;humidity
71206;SHT31;58935;54.498;18.544;2023-06-14T00:01:45;15.73;62.04
71206;SHT31;58935;54.498;18.544;2023-06-14T00:04:11;15.67;62.53
71206;SHT31;58935;54.498;18.544;2023-06-14T00:06:38;15.60;62.78
71206;SHT31;58935;54.498;18.544;2023-06-14T00:09:06;15.52;63.01
71206;SHT31;58935;54.498;18.544;2023-06-14T00:11:33;15.45;63.21
71206;SHT31;58935;54.498;18.544;2023-06-14T00:13:59;15.40;63.38
71206;SHT31;58935;54.498;18.544;2023-06-14T00:16:24;15.35;63.70
71206;SHT31;58935;54.498;18.544;2023-06-14T00:18:50;15.30;63.97
71206;SHT31;58935;54.498;18.544;2023-06-14T00:21:17;15.24;64.58
71206;SHT31;58935;54.498;18.544;2023-06-14T00:23:43;15.20;64.88
71206;SHT31;58935;54.498;18.544;2023-06-14T00:26:08;15.18;65.12
71206;SHT31;58935;54.498;18.544;2023-06-14T00:28:34;15.16;65.38
71206;SHT31;58935;54.498;18.544;2023-06-14T00:31:00;15.16;65.60
71206;SHT31;58935;54.498;18.544;2023-06-14T00:33:25;15.14;65.66
71206;SHT31;58935;54.498;18.544;2023-06-14T00:35:51;15.15;65.83
71206;SHT31;58935;54.498;18.544;2023-06-14T00:38:19;15.15;66.04
71206;SHT31;58935;54.498;18.544;2023-06-14T00:40:46;15.13;66.09
71206;SHT31;58935;54.498;18.544;2023-06-14T00:43:11;15.12;66.17
71206;SHT31;58935;54.498;18.544;2023-06-14T00:45:37;15.12;66.23
71206;SHT31;58935;54.498;18.544;2023-06-14T00:48:04;15.10;66.35
71206;SHT31;58935;54.498;18.544;2023-06-14T00:50:32;15.10;66.34
71206;SHT31;58935;54.498;18.544;2023-06-14T00:52:59;15.10;66.59
71206;SHT31;58935;54.498;18.544;2023-06-14T00:55:26;15.09;66.61
71206;SHT31;58935;54.498;18.544;2023-06-14T00:57:53;15.08;66.78
71206;SHT31;58935;54.498;18.544;2023-06-14T01:00:20;15.06;66.98
71206;SHT31;58935;54.498;18.544;2023-06-14T01:02:47;15.04;67.09
71206;SHT31;58935;54.498;18.544;2023-06-14T01:05:14;15.02;67.48
71206;SHT31;58935;54.498;18.544;2023-06-14T01:07:46;14.99;67.60
71206;SHT31;58935;54.498;18.544;2023-06-14T01:12:59;14.94;68.34
71206;SHT31;58935;54.498;18.544;2023-06-14T01:15:35;14.92;68.66
71206;SHT31;58935;54.498;18.544;2023-06-14T01:18:04;14.90;68.87
71206;SHT31;58935;54.498;18.544;2023-06-14T01:20:32;14.89;69.17
71206;SHT31;58935;54.498;18.544;2023-06-14T01:23:01;14.87;69.18
71206;SHT31;58935;54.498;18.544;2023-06-14T01:25:27;14.87;69.35
71206;SHT31;58935;54.498;18.544;2023-06-14T01:27:55;14.85;69.48
71206;SHT31;58935;54.498;18.544;2023-06-14T01:30:25;14.83;69.78
71206;SHT31;58935;54.498;18.544;2023-06-14T01:32:52;14.81;69.78
71206;SHT31;58935;54.498;18.544;2023-06-14T01:35:22;14.78;69.79
71206;SHT31;58935;54.498;18.544;2023-06-14T01:37:48;14.76;69.78
71206;SHT31;58935;54.498;18.544;2023-06-14T01:40:15;14.75;69.89
71206;SHT31;58935;54.498;18.544;2023-06-14T01:42:43;14.74;70.00
71206;SHT31;58935;54.498;18.544;2023-06-14T01:45:12;14.73;69.98
71206;SHT31;58935;54.498;18.544;2023-06-14T01:47:39;14.71;70.28
71206;SHT31;58935;54.498;18.544;2023-06-14T01:50:06;14.67;70.64
71206;SHT31;58935;54.498;18.544;2023-06-14T01:52:32;14.65;70.87
71206;SHT31;58935;54.498;18.544;2023-06-14T01:54:57;14.62;71.14
71206;SHT31;58935;54.498;18.544;2023-06-14T01:57:23;14.59;71.23
71206;SHT31;58935;54.498;18.544;2023-06-14T01:59:51;14.56;71.28
71206;SHT31;58935;54.498;18.544;2023-06-14T02:02:17;14.52;71.54
71206;SHT31;58935;54.498;18.544;2023-06-14T02:04:43;14.51;71.78
71206;SHT31;58935;54.498;18.544;2023-06-14T02:07:09;14.47;71.98
71206;SHT31;58935;54.498;18.544;2023-06-14T02:09:34;14.44;72.23
71206;SHT31;58935;54.498;18.544;2023-06-14T02:12:01;14.42;72.56
71206;SHT31;58935;54.498;18.544;2023-06-14T02:14:26;14.40;72.83
71206;SHT31;58935;54.498;18.544;2023-06-14T02:16:52;14.38;72.93
71206;SHT31;58935;54.498;18.544;2023-06-14T02:19:18;14.36;73.20
71206;SHT31;58935;54.498;18.544;2023-06-14T02:21:45;14.36;73.39
71206;SHT31;58935;54.498;18.544;2023-06-14T02:24:12;14.33;73.46
71206;SHT31;58935;54.498;18.544;2023-06-14T02:26:41;14.32;73.71
71206;SHT31;58935;54.498;18.544;2023-06-14T02:29:07;14.31;73.83
71206;SHT31;58935;54.498;18.544;2023-06-14T02:31:36;14.30;74.06
71206;SHT31;58935;54.498;18.544;2023-06-14T02:34:01;14.32;74.11
71206;SHT31;58935;54.498;18.544;2023-06-14T02:36:27;14.32;74.21
71206;SHT31;58935;54.498;18.544;2023-06-14T02:38:56;14.33;74.30
71206;SHT31;58935;54.498;18.544;2023-06-14T02:41:24;14.35;74.43
71206;SHT31;58935;54.498;18.544;2023-06-14T02:43:51;14.37;74.52
71206;SHT31;58935;54.498;18.544;2023-06-14T02:46:17;14.40;74.56
71206;SHT31;58935;54.498;18.544;2023-06-14T02:48:43;14.44;74.67
71206;SHT31;58935;54.498;18.544;2023-06-14T02:51:09;14.49;74.68
71206;SHT31;58935;54.498;18.544;2023-06-14T02:53:35;14.55;74.86
71206;SHT31;58935;54.498;18.544;2023-06-14T02:56:01;14.61;74.80
71206;SHT31;58935;54.498;18.544;2023-06-14T02:58:31;14.66;74.73
71206;SHT31;58935;54.498;18.544;2023-06-14T03:00:58;14.73;74.78
71206;SHT31;58935;54.498;18.544;2023-06-14T03:03:28;14.80;74.71
71206;SHT31;58935;54.498;18.544;2023-06-14T03:05:55;14.88;74.59
71206;SHT31;58935;54.498;18.544;2023-06-14T03:08:21;14.94;74.42
71206;SHT31;58935;54.498;18.544;2023-06-14T03:10:52;15.02;74.39
71206;SHT31;58935;54.498;18.544;2023-06-14T03:13:18;15.18;74.15
71206;SHT31;58935;54.498;18.544;2023-06-14T03:15:46;15.62;73.44
71206;SHT31;58935;54.498;18.544;2023-06-14T03:18:12;16.14;72.12
71206;SHT31;58935;54.498;18.544;2023-06-14T03:20:40;16.32;71.38
71206;SHT31;58935;54.498;18.544;2023-06-14T03:23:07;16.31;71.16
71206;SHT31;58935;54.498;18.544;2023-06-14T03:25:33;16.25;71.15
71206;SHT31;58935;54.498;18.544;2023-06-14T03:28:03;16.16;71.27
71206;SHT31;58935;54.498;18.544;2023-06-14T03:30:30;16.09;71.38
71206;SHT31;58935;54.498;18.544;2023-06-14T03:32:56;16.04;71.53
71206;SHT31;58935;54.498;18.544;2023-06-14T03:35:23;16.00;71.69
71206;SHT31;58935;54.498;18.544;2023-06-14T03:37:49;15.95;71.83
71206;SHT31;58935;54.498;18.544;2023-06-14T03:40:18;15.91;71.97
71206;SHT31;58935;54.498;18.544;2023-06-14T03:42:45;15.89;72.04
71206;SHT31;58935;54.498;18.544;2023-06-14T03:45:10;15.87;72.16
71206;SHT31;58935;54.498;18.544;2023-06-14T03:47:36;15.86;72.25
71206;SHT31;58935;54.498;18.544;2023-06-14T03:50:03;15.86;72.30
71206;SHT31;58935;54.498;18.544;2023-06-14T03:52:29;15.88;72.29
71206;SHT31;58935;54.498;18.544;2023-06-14T03:54:58;15.90;72.29
71206;SHT31;58935;54.498;18.544;2023-06-14T03:57:25;15.94;72.24
71206;SHT31;58935;54.498;18.544;2023-06-14T03:59:51;15.99;72.18
71206;SHT31;58935;54.498;18.544;2023-06-14T04:02:17;16.05;72.14
71206;SHT31;58935;54.498;18.544;2023-06-14T04:04:43;16.11;72.02
71206;SHT31;58935;54.498;18.544;2023-06-14T04:07:11;16.17;71.99
71206;SHT31;58935;54.498;18.544;2023-06-14T04:09:38;16.27;71.84
71206;SHT31;58935;54.498;18.544;2023-06-14T04:12:05;16.36;71.75
71206;SHT31;58935;54.498;18.544;2023-06-14T04:14:36;16.46;71.57
71206;SHT31;58935;54.498;18.544;2023-06-14T04:17:03;16.53;71.34
71206;SHT31;58935;54.498;18.544;2023-06-14T04:19:29;16.58;71.22
71206;SHT31;58935;54.498;18.544;2023-06-14T04:21:54;16.62;71.08
71206;SHT31;58935;54.498;18.544;2023-06-14T04:24:20;16.65;70.93
71206;SHT31;58935;54.498;18.544;2023-06-14T04:26:46;16.67;70.86
71206;SHT31;58935;54.498;18.544;2023-06-14T04:29:14;16.72;70.80
71206;SHT31;58935;54.498;18.544;2023-06-14T04:31:41;16.78;70.71
71206;SHT31;58935;54.498;18.544;2023-06-14T04:34:09;16.84;70.48
71206;SHT31;58935;54.498;18.544;2023-06-14T04:36:41;16.91;70.29
71206;SHT31;58935;54.498;18.544;2023-06-14T04:39:11;16.95;70.14
71206;SHT31;58935;54.498;18.544;2023-06-14T04:41:38;16.99;69.77
71206;SHT31;58935;54.498;18.544;2023-06-14T04:44:06;17.05;69.70
71206;SHT31;58935;54.498;18.544;2023-06-14T04:46:35;17.15;69.61
71206;SHT31;58935;54.498;18.544;2023-06-14T04:49:11;17.22;69.29
71206;SHT31;58935;54.498;18.544;2023-06-14T04:51:41;17.29;68.75
71206;SHT31;58935;54.498;18.544;2023-06-14T04:54:08;17.31;68.45
71206;SHT31;58935;54.498;18.544;2023-06-14T04:56:38;17.33;68.44
71206;SHT31;58935;54.498;18.544;2023-06-14T04:59:07;17.39;68.39
71206;SHT31;58935;54.498;18.544;2023-06-14T05:01:34;17.46;68.23
71206;SHT31;58935;54.498;18.544;2023-06-14T05:04:00;17.52;68.07
71206;SHT31;58935;54.498;18.544;2023-06-14T05:06:26;17.59;67.88
71206;SHT31;58935;54.498;18.544;2023-06-14T05:08:53;17.63;67.54
71206;SHT31;58935;54.498;18.544;2023-06-14T05:11:19;17.67;67.46
71206;SHT31;58935;54.498;18.544;2023-06-14T05:13:45;17.71;67.20
71206;SHT31;58935;54.498;18.544;2023-06-14T05:16:11;17.72;67.25
71206;SHT31;58935;54.498;18.544;2023-06-14T05:18:44;17.74;67.30
71206;SHT31;58935;54.498;18.544;2023-06-14T05:21:12;17.74;67.17
71206;SHT31;58935;54.498;18.544;2023-06-14T05:23:38;17.73;67.03
71206;SHT31;58935;54.498;18.544;2023-06-14T05:26:03;17.76;67.08
71206;SHT31;58935;54.498;18.544;2023-06-14T05:28:29;17.78;66.79
71206;SHT31;58935;54.498;18.544;2023-06-14T05:30:56;17.82;66.83
71206;SHT31;58935;54.498;18.544;2023-06-14T05:33:23;17.88;66.88
71206;SHT31;58935;54.498;18.544;2023-06-14T05:35:48;17.93;66.73
71206;SHT31;58935;54.498;18.544;2023-06-14T05:38:16;17.97;66.62
71206;SHT31;58935;54.498;18.544;2023-06-14T05:40:42;18.00;66.58
71206;SHT31;58935;54.498;18.544;2023-06-14T05:43:10;18.04;66.60
71206;SHT31;58935;54.498;18.544;2023-06-14T05:45:35;18.10;66.24
71206;SHT31;58935;54.498;18.544;2023-06-14T05:48:03;18.14;65.82
71206;SHT31;58935;54.498;18.544;2023-06-14T05:50:31;18.18;65.60
71206;SHT31;58935;54.498;18.544;2023-06-14T05:52:56;18.24;65.45
71206;SHT31;58935;54.498;18.544;2023-06-14T05:55:22;18.33;64.96
71206;SHT31;58935;54.498;18.544;2023-06-14T05:57:48;18.39;65.01
71206;SHT31;58935;54.498;18.544;2023-06-14T06:00:13;18.45;65.11
71206;SHT31;58935;54.498;18.544;2023-06-14T06:02:42;18.53;64.90
71206;SHT31;58935;54.498;18.544;2023-06-14T06:05:09;18.60;64.76
71206;SHT31;58935;54.498;18.544;2023-06-14T06:07:36;18.66;64.44
71206;SHT31;58935;54.498;18.544;2023-06-14T06:10:03;18.72;63.80
71206;SHT31;58935;54.498;18.544;2023-06-14T06:12:30;18.76;63.21
71206;SHT31;58935;54.498;18.544;2023-06-14T06:14:56;18.80;62.96
71206;SHT31;58935;54.498;18.544;2023-06-14T06:17:21;18.82;63.12
71206;SHT31;58935;54.498;18.544;2023-06-14T06:19:50;18.88;63.01
71206;SHT31;58935;54.498;18.544;2023-06-14T06:22:18;18.92;62.77
71206;SHT31;58935;54.498;18.544;2023-06-14T06:24:44;18.99;62.31
71206;SHT31;58935;54.498;18.544;2023-06-14T06:27:09;19.05;62.13
71206;SHT31;58935;54.498;18.544;2023-06-14T06:29:37;19.13;61.89
71206;SHT31;58935;54.498;18.544;2023-06-14T06:32:03;19.23;60.45
71206;SHT31;58935;54.498;18.544;2023-06-14T06:34:32;19.31;58.87
71206;SHT31;58935;54.498;18.544;2023-06-14T06:36:57;19.35;56.57
71206;SHT31;58935;54.498;18.544;2023-06-14T06:39:23;19.41;57.54
71206;SHT31;58935;54.498;18.544;2023-06-14T06:41:48;19.52;58.19
71206;SHT31;58935;54.498;18.544;2023-06-14T06:44:16;19.61;57.55
71206;SHT31;58935;54.498;18.544;2023-06-14T06:46:43;19.67;56.05
71206;SHT31;58935;54.498;18.544;2023-06-14T06:49:09;19.69;56.22
71206;SHT31;58935;54.498;18.544;2023-06-14T06:51:37;19.72;56.29
71206;SHT31;58935;54.498;18.544;2023-06-14T06:54:07;19.77;56.15
71206;SHT31;58935;54.498;18.544;2023-06-14T06:56:33;19.78;55.98
71206;SHT31;58935;54.498;18.544;2023-06-14T06:58:59;19.82;55.88
71206;SHT31;58935;54.498;18.544;2023-06-14T07:01:30;19.87;56.22
71206;SHT31;58935;54.498;18.544;2023-06-14T07:04:00;19.95;56.46
71206;SHT31;58935;54.498;18.544;2023-06-14T07:06:26;20.03;55.88
71206;SHT31;58935;54.498;18.544;2023-06-14T07:08:53;20.06;55.15
71206;SHT31;58935;54.498;18.544;2023-06-14T07:11:18;20.07;55.54
71206;SHT31;58935;54.498;18.544;2023-06-14T07:13:43;20.08;55.95
71206;SHT31;58935;54.498;18.544;2023-06-14T07:16:09;20.07;55.66
71206;SHT31;58935;54.498;18.544;2023-06-14T07:18:36;20.07;56.21
71206;SHT31;58935;54.498;18.544;2023-06-14T07:21:04;20.05;55.96
71206;SHT31;58935;54.498;18.544;2023-06-14T07:23:30;20.08;56.27
71206;SHT31;58935;54.498;18.544;2023-06-14T07:25:55;20.17;55.44
71206;SHT31;58935;54.498;18.544;2023-06-14T07:28:21;20.23;55.05
71206;SHT31;58935;54.498;18.544;2023-06-14T07:30:51;20.30;54.64
71206;SHT31;58935;54.498;18.544;2023-06-14T07:33:21;20.39;54.86
71206;SHT31;58935;54.498;18.544;2023-06-14T07:35:46;20.48;54.05
71206;SHT31;58935;54.498;18.544;2023-06-14T07:38:13;20.51;53.25
71206;SHT31;58935;54.498;18.544;2023-06-14T07:40:40;20.52;53.20
71206;SHT31;58935;54.498;18.544;2023-06-14T07:43:06;20.51;52.88
71206;SHT31;58935;54.498;18.544;2023-06-14T07:45:31;20.53;54.13
71206;SHT31;58935;54.498;18.544;2023-06-14T07:47:59;20.61;53.41
71206;SHT31;58935;54.498;18.544;2023-06-14T07:50:25;20.60;53.19
71206;SHT31;58935;54.498;18.544;2023-06-14T07:52:56;20.57;54.39
71206;SHT31;58935;54.498;18.544;2023-06-14T08:05:55;20.73;56.97
71206;SHT31;58935;54.498;18.544;2023-06-14T08:11:01;20.67;55.94
71206;SHT31;58935;54.498;18.544;2023-06-14T08:18:40;20.73;57.25
71206;SHT31;58935;54.498;18.544;2023-06-14T08:21:06;20.72;57.41
71206;SHT31;58935;54.498;18.544;2023-06-14T08:23:32;20.64;57.93
71206;SHT31;58935;54.498;18.544;2023-06-14T08:25:58;20.65;58.17
71206;SHT31;58935;54.498;18.544;2023-06-14T08:28:32;20.71;58.32
71206;SHT31;58935;54.498;18.544;2023-06-14T08:30:58;20.72;58.62
71206;SHT31;58935;54.498;18.544;2023-06-14T08:33:23;20.70;58.93
71206;SHT31;58935;54.498;18.544;2023-06-14T08:35:51;20.75;59.56
71206;SHT31;58935;54.498;18.544;2023-06-14T08:38:18;20.81;59.66
71206;SHT31;58935;54.498;18.544;2023-06-14T08:40:45;20.88;59.39
71206;SHT31;58935;54.498;18.544;2023-06-14T08:43:13;20.91;57.92
71206;SHT31;58935;54.498;18.544;2023-06-14T08:45:38;20.90;57.74
71206;SHT31;58935;54.498;18.544;2023-06-14T08:48:07;20.90;57.10
71206;SHT31;58935;54.498;18.544;2023-06-14T08:50:33;20.91;57.23
71206;SHT31;58935;54.498;18.544;2023-06-14T08:53:09;20.97;57.67
71206;SHT31;58935;54.498;18.544;2023-06-14T08:55:44;21.04;57.53
71206;SHT31;58935;54.498;18.544;2023-06-14T08:58:10;21.09;56.35
71206;SHT31;58935;54.498;18.544;2023-06-14T09:00:39;21.12;56.78
71206;SHT31;58935;54.498;18.544;2023-06-14T09:03:06;21.14;56.09
71206;SHT31;58935;54.498;18.544;2023-06-14T09:05:38;21.11;56.41
71206;SHT31;58935;54.498;18.544;2023-06-14T09:08:04;21.05;55.22
71206;SHT31;58935;54.498;18.544;2023-06-14T09:10:30;21.06;56.35
71206;SHT31;58935;54.498;18.544;2023-06-14T09:13:00;21.06;55.81
71206;SHT31;58935;54.498;18.544;2023-06-14T09:15:26;20.94;55.34
71206;SHT31;58935;54.498;18.544;2023-06-14T09:17:52;20.89;56.00
71206;SHT31;58935;54.498;18.544;2023-06-14T09:20:18;20.91;56.50
71206;SHT31;58935;54.498;18.544;2023-06-14T09:22:44;20.99;56.56
71206;SHT31;58935;54.498;18.544;2023-06-14T09:25:10;21.14;56.36
71206;SHT31;58935;54.498;18.544;2023-06-14T09:27:38;21.27;54.48
71206;SHT31;58935;54.498;18.544;2023-06-14T09:30:06;21.33;53.62
71206;SHT31;58935;54.498;18.544;2023-06-14T09:32:38;21.42;53.89
71206;SHT31;58935;54.498;18.544;2023-06-14T09:35:05;21.41;56.05
71206;SHT31;58935;54.498;18.544;2023-06-14T09:37:32;21.39;58.00
71206;SHT31;58935;54.498;18.544;2023-06-14T09:39:59;21.33;57.72
71206;SHT31;58935;54.498;18.544;2023-06-14T09:42:27;21.17;58.44
71206;SHT31;58935;54.498;18.544;2023-06-14T09:44:54;20.98;59.40
71206;SHT31;58935;54.498;18.544;2023-06-14T09:47:21;20.87;58.59
71206;SHT31;58935;54.498;18.544;2023-06-14T09:49:53;20.69;59.85
71206;SHT31;58935;54.498;18.544;2023-06-14T09:52:20;20.59;61.37
71206;SHT31;58935;54.498;18.544;2023-06-14T09:54:48;20.54;61.74
71206;SHT31;58935;54.498;18.544;2023-06-14T09:57:16;20.50;60.58
71206;SHT31;58935;54.498;18.544;2023-06-14T09:59:48;20.53;60.05
71206;SHT31;58935;54.498;18.544;2023-06-14T10:02:25;20.60;60.05
71206;SHT31;58935;54.498;18.544;2023-06-14T10:04:58;20.62;60.24
71206;SHT31;58935;54.498;18.544;2023-06-14T10:07:35;20.68;60.52
71206;SHT31;58935;54.498;18.544;2023-06-14T10:10:16;20.76;60.02
71206;SHT31;58935;54.498;18.544;2023-06-14T10:12:42;20.80;59.38
71206;SHT31;58935;54.498;18.544;2023-06-14T10:15:12;20.93;59.77
71206;SHT31;58935;54.498;18.544;2023-06-14T10:17:51;21.10;59.60
71206;SHT31;58935;54.498;18.544;2023-06-14T10:23:03;21.28;58.09
71206;SHT31;58935;54.498;18.544;2023-06-14T10:25:37;21.25;58.11
71206;SHT31;58935;54.498;18.544;2023-06-14T10:28:05;21.26;57.62
71206;SHT31;58935;54.498;18.544;2023-06-14T10:33:17;21.26;56.88
71206;SHT31;58935;54.498;18.544;2023-06-14T10:35:42;21.23;57.34
71206;SHT31;58935;54.498;18.544;2023-06-14T10:38:09;21.20;58.15
71206;SHT31;58935;54.498;18.544;2023-06-14T10:40:37;21.11;58.85
71206;SHT31;58935;54.498;18.544;2023-06-14T10:48:29;20.90;61.05
71206;SHT31;58935;54.498;18.544;2023-06-14T10:51:00;20.92;60.89
71206;SHT31;58935;54.498;18.544;2023-06-14T10:53:27;20.95;61.09
71206;SHT31;58935;54.498;18.544;2023-06-14T10:55:53;21.01;60.66
71206;SHT31;58935;54.498;18.544;2023-06-14T10:58:21;21.07;59.81
71206;SHT31;58935;54.498;18.544;2023-06-14T11:00:49;21.11;59.33
71206;SHT31;58935;54.498;18.544;2023-06-14T11:06:12;21.21;58.95
71206;SHT31;58935;54.498;18.544;2023-06-14T11:09:49;21.24;58.87
71206;SHT31;58935;54.498;18.544;2023-06-14T11:11:34;21.19;58.16
71206;SHT31;58935;54.498;18.544;2023-06-14T11:14:07;21.14;58.43
71206;SHT31;58935;54.498;18.544;2023-06-14T11:16:32;21.16;58.27
71206;SHT31;58935;54.498;18.544;2023-06-14T11:19:00;21.13;57.98
71206;SHT31;58935;54.498;18.544;2023-06-14T11:21:28;21.13;58.82
71206;SHT31;58935;54.498;18.544;2023-06-14T11:23:56;21.24;58.72
71206;SHT31;58935;54.498;18.544;2023-06-14T11:26:26;21.31;58.00
71206;SHT31;58935;54.498;18.544;2023-06-14T11:28:55;21.33;56.94
71206;SHT31;58935;54.498;18.544;2023-06-14T11:31:25;21.35;57.13
71206;SHT31;58935;54.498;18.544;2023-06-14T11:33:53;21.41;57.35
71206;SHT31;58935;54.498;18.544;2023-06-14T11:36:21;21.46;56.97
71206;SHT31;58935;54.498;18.544;2023-06-14T11:38:48;21.50;57.20
71206;SHT31;58935;54.498;18.544;2023-06-14T11:41:14;21.53;57.09
71206;SHT31;58935;54.498;18.544;2023-06-14T11:43:40;21.50;57.08
71206;SHT31;58935;54.498;18.544;2023-06-14T11:46:11;21.50;57.51
71206;SHT31;58935;54.498;18.544;2023-06-14T11:48:45;21.47;57.76
71206;SHT31;58935;54.498;18.544;2023-06-14T11:51:15;21.42;57.90
71206;SHT31;58935;54.498;18.544;2023-06-14T11:53:42;21.54;57.71
71206;SHT31;58935;54.498;18.544;2023-06-14T11:56:08;21.73;57.26
71206;SHT31;58935;54.498;18.544;2023-06-14T11:58:34;21.75;56.74
71206;SHT31;58935;54.498;18.544;2023-06-14T12:01:00;21.69;55.88
71206;SHT31;58935;54.498;18.544;2023-06-14T12:03:28;21.74;55.12
71206;SHT31;58935;54.498;18.544;2023-06-14T12:08:33;21.91;52.71
71206;SHT31;58935;54.498;18.544;2023-06-14T12:11:04;21.92;52.15
71206;SHT31;58935;54.498;18.544;2023-06-14T12:13:31;22.04;52.90
71206;SHT31;58935;54.498;18.544;2023-06-14T12:15:57;22.17;52.69
71206;SHT31;58935;54.498;18.544;2023-06-14T12:20:59;22.05;54.35
71206;SHT31;58935;54.498;18.544;2023-06-14T12:23:59;21.93;55.82
71206;SHT31;58935;54.498;18.544;2023-06-14T12:26:15;21.86;55.62
71206;SHT31;58935;54.498;18.544;2023-06-14T12:28:44;21.80;55.43
71206;SHT31;58935;54.498;18.544;2023-06-14T12:31:11;21.78;55.70
71206;SHT31;58935;54.498;18.544;2023-06-14T12:33:41;21.72;56.63
71206;SHT31;58935;54.498;18.544;2023-06-14T12:36:10;21.68;55.60
71206;SHT31;58935;54.498;18.544;2023-06-14T12:38:36;21.66;54.97
71206;SHT31;58935;54.498;18.544;2023-06-14T12:41:03;21.58;55.41
71206;SHT31;58935;54.498;18.544;2023-06-14T12:43:29;21.54;54.71
71206;SHT31;58935;54.498;18.544;2023-06-14T12:45:55;21.52;55.05
71206;SHT31;58935;54.498;18.544;2023-06-14T12:48:20;21.54;54.83
71206;SHT31;58935;54.498;18.544;2023-06-14T12:50:47;21.58;55.48
71206;SHT31;58935;54.498;18.544;2023-06-14T12:53:13;21.71;56.14
71206;SHT31;58935;54.498;18.544;2023-06-14T12:55:39;21.79;55.69
71206;SHT31;58935;54.498;18.544;2023-06-14T12:58:05;21.90;54.73
71206;SHT31;58935;54.498;18.544;2023-06-14T13:00:31;21.84;52.99
71206;SHT31;58935;54.498;18.544;2023-06-14T13:02:56;21.87;53.64
71206;SHT31;58935;54.498;18.544;2023-06-14T13:05:23;22.01;53.35
71206;SHT31;58935;54.498;18.544;2023-06-14T13:07:49;22.01;52.23
71206;SHT31;58935;54.498;18.544;2023-06-14T13:10:17;22.00;52.75
71206;SHT31;58935;54.498;18.544;2023-06-14T13:12:43;22.03;52.71
71206;SHT31;58935;54.498;18.544;2023-06-14T13:15:09;22.04;53.43
71206;SHT31;58935;54.498;18.544;2023-06-14T13:17:35;22.08;53.49
71206;SHT31;58935;54.498;18.544;2023-06-14T13:20:06;22.02;52.95
71206;SHT31;58935;54.498;18.544;2023-06-14T13:22:32;21.86;53.64
71206;SHT31;58935;54.498;18.544;2023-06-14T13:24:58;21.67;53.94
71206;SHT31;58935;54.498;18.544;2023-06-14T13:27:25;21.62;53.89
71206;SHT31;58935;54.498;18.544;2023-06-14T13:29:52;21.60;53.87
71206;SHT31;58935;54.498;18.544;2023-06-14T13:32:20;21.58;53.43
71206;SHT31;58935;54.498;18.544;2023-06-14T13:34:48;21.56;52.83
71206;SHT31;58935;54.498;18.544;2023-06-14T13:37:14;21.56;52.22
71206;SHT31;58935;54.498;18.544;2023-06-14T13:39:39;21.48;51.76
71206;SHT31;58935;54.498;18.544;2023-06-14T13:42:05;21.44;52.13
71206;SHT31;58935;54.498;18.544;2023-06-14T13:44:31;21.47;51.60
71206;SHT31;58935;54.498;18.544;2023-06-14T13:46:57;21.51;52.19
71206;SHT31;58935;54.498;18.544;2023-06-14T13:49:22;21.56;51.24
71206;SHT31;58935;54.498;18.544;2023-06-14T13:51:48;21.56;51.60
71206;SHT31;58935;54.498;18.544;2023-06-14T13:54:14;21.56;51.27
71206;SHT31;58935;54.498;18.544;2023-06-14T13:56:40;21.58;51.05
71206;SHT31;58935;54.498;18.544;2023-06-14T13:59:06;21.58;50.62
71206;SHT31;58935;54.498;18.544;2023-06-14T14:01:32;21.54;50.82
71206;SHT31;58935;54.498;18.544;2023-06-14T14:04:00;21.59;50.34
71206;SHT31;58935;54.498;18.544;2023-06-14T14:06:26;21.75;47.91
71206;SHT31;58935;54.498;18.544;2023-06-14T14:08:52;21.83;46.54
71206;SHT31;58935;54.498;18.544;2023-06-14T14:11:18;21.77;45.41
71206;SHT31;58935;54.498;18.544;2023-06-14T14:13:45;21.75;45.32
71206;SHT31;58935;54.498;18.544;2023-06-14T14:16:12;21.74;44.86
71206;SHT31;58935;54.498;18.544;2023-06-14T14:18:38;21.79;45.24
71206;SHT31;58935;54.498;18.544;2023-06-14T14:21:04;21.89;43.57
71206;SHT31;58935;54.498;18.544;2023-06-14T14:23:30;21.99;43.92
71206;SHT31;58935;54.498;18.544;2023-06-14T14:25:56;22.17;45.00
71206;SHT31;58935;54.498;18.544;2023-06-14T14:28:22;22.35;44.14
71206;SHT31;58935;54.498;18.544;2023-06-14T14:30:50;22.42;44.58
71206;SHT31;58935;54.498;18.544;2023-06-14T14:33:19;22.42;45.26
71206;SHT31;58935;54.498;18.544;2023-06-14T14:35:44;22.42;45.60
71206;SHT31;58935;54.498;18.544;2023-06-14T14:38:12;22.45;46.63
71206;SHT31;58935;54.498;18.544;2023-06-14T14:40:40;22.43;46.98
71206;SHT31;58935;54.498;18.544;2023-06-14T14:43:06;22.34;47.46
71206;SHT31;58935;54.498;18.544;2023-06-14T14:45:32;22.20;46.95
71206;SHT31;58935;54.498;18.544;2023-06-14T14:48:00;22.00;47.44
71206;SHT31;58935;54.498;18.544;2023-06-14T14:50:27;21.81;48.71
71206;SHT31;58935;54.498;18.544;2023-06-14T14:52:53;21.69;49.87
71206;SHT31;58935;54.498;18.544;2023-06-14T14:55:21;21.67;50.90
71206;SHT31;58935;54.498;18.544;2023-06-14T14:57:47;21.67;51.87
71206;SHT31;58935;54.498;18.544;2023-06-14T15:00:15;21.61;52.69
71206;SHT31;58935;54.498;18.544;2023-06-14T15:02:41;21.54;52.97
71206;SHT31;58935;54.498;18.544;2023-06-14T15:05:10;21.58;53.03
71206;SHT31;58935;54.498;18.544;2023-06-14T15:07:36;21.58;52.43
71206;SHT31;58935;54.498;18.544;2023-06-14T15:10:05;21.53;52.42
71206;SHT31;58935;54.498;18.544;2023-06-14T15:12:35;21.44;51.91
71206;SHT31;58935;54.498;18.544;2023-06-14T15:15:00;21.43;52.89
71206;SHT31;58935;54.498;18.544;2023-06-14T15:17:28;21.41;52.78
71206;SHT31;58935;54.498;18.544;2023-06-14T15:19:56;21.35;53.28
71206;SHT31;58935;54.498;18.544;2023-06-14T15:22:22;21.33;53.92
71206;SHT31;58935;54.498;18.544;2023-06-14T15:24:48;21.34;54.18
71206;SHT31;58935;54.498;18.544;2023-06-14T15:27:13;21.34;53.81
71206;SHT31;58935;54.498;18.544;2023-06-14T15:29:41;21.42;53.86
71206;SHT31;58935;54.498;18.544;2023-06-14T15:32:07;21.56;52.96
71206;SHT31;58935;54.498;18.544;2023-06-14T15:34:33;21.59;52.07
71206;SHT31;58935;54.498;18.544;2023-06-14T15:37:00;21.60;52.36
71206;SHT31;58935;54.498;18.544;2023-06-14T15:39:28;21.63;52.28
71206;SHT31;58935;54.498;18.544;2023-06-14T15:41:57;21.54;52.64
71206;SHT31;58935;54.498;18.544;2023-06-14T15:44:24;21.40;53.36
71206;SHT31;58935;54.498;18.544;2023-06-14T15:46:50;21.20;55.44
71206;SHT31;58935;54.498;18.544;2023-06-14T15:49:16;20.92;57.87
71206;SHT31;58935;54.498;18.544;2023-06-14T15:51:41;20.64;59.91
71206;SHT31;58935;54.498;18.544;2023-06-14T15:54:07;20.41;60.65
71206;SHT31;58935;54.498;18.544;2023-06-14T15:56:32;20.30;61.37